Time;durP1;ratioP1;P1;durP2;ratioP2;P2;SDS_P1;SDS_P2;PMS_P1;PMS_P2;Temp;Humidity;BMP_temperature;BMP_pressure;BME280_temperature;BME280_humidity;BME280_pressure;Samples;Min_cycle;Max_cycle;Signal;HPM_P1;HPM_P2
2022/04/04 00:01:40;;;;;;;60.50;25.63;;;;;;;;;;5056511;28;20386;-67
2022/04/04 00:04:06;;;;;;;53.58;24.27;;;;;;;;;;5056716;28;20032;-67
2022/04/04 00:06:33;;;;;;;52.83;23.77;;;;;;;;;;5056919;28;20062;-67
2022/04/04 00:08:59;;;;;;;31.88;18.60;;;;;;;;;;5056680;28;20116;-67
2022/04/04 00:11:25;;;;;;;38.33;21.10;;;;;;;;;;5038357;28;20032;-67
2022/04/04 00:13:51;;;;;;;34.42;21.50;;;;;;;;;;5056174;28;20021;-67
2022/04/04 00:16:18;;;;;;;34.17;20.35;;;;;;;;;;5056506;28;20500;-67
2022/04/04 00:18:44;;;;;;;34.20;19.60;;;;;;;;;;5038511;28;20029;-67
2022/04/04 00:21:10;;;;;;;33.25;18.73;;;;;;;;;;5056402;28;20096;-68
2022/04/04 00:23:36;;;;;;;30.90;18.45;;;;;;;;;;5056372;28;20082;-67
2022/04/04 00:26:05;;;;;;;41.80;18.55;;;;;;;;;;5056514;28;20116;-67
2022/04/04 00:28:31;;;;;;;33.53;18.63;;;;;;;;;;5056348;28;20021;-68
2022/04/04 00:30:58;;;;;;;28.88;18.52;;;;;;;;;;5038247;28;20032;-67
2022/04/04 00:33:24;;;;;;;31.80;18.85;;;;;;;;;;5056156;28;20021;-67
2022/04/04 00:35:50;;;;;;;36.05;21.05;;;;;;;;;;5056158;28;20493;-68
2022/04/04 00:38:18;;;;;;;41.00;23.60;;;;;;;;;;5038191;28;20028;-67
2022/04/04 00:40:44;;;;;;;42.25;23.77;;;;;;;;;;5056153;28;20473;-67
2022/04/04 00:43:10;;;;;;;42.97;24.27;;;;;;;;;;5056299;28;20025;-68
2022/04/04 00:45:36;;;;;;;41.10;22.98;;;;;;;;;;5055969;28;20027;-68
2022/04/04 00:48:03;;;;;;;41.50;24.75;;;;;;;;;;5055949;28;20100;-67
2022/04/04 00:50:30;;;;;;;46.70;26.02;;;;;;;;;;5055941;28;20124;-67
2022/04/04 00:52:56;;;;;;;42.45;24.98;;;;;;;;;;5055830;28;20024;-67
2022/04/04 00:55:22;;;;;;;44.95;24.95;;;;;;;;;;5055783;28;20089;-65
2022/04/04 00:57:49;;;;;;;49.10;25.23;;;;;;;;;;5055863;28;20029;-67
2022/04/04 01:00:15;;;;;;;48.67;26.75;;;;;;;;;;5055993;28;20029;-66
2022/04/04 01:02:42;;;;;;;47.97;25.50;;;;;;;;;;5055927;28;20118;-66
2022/04/04 01:05:09;;;;;;;44.92;27.80;;;;;;;;;;5037616;28;20029;-67
2022/04/04 01:07:40;;;;;;;44.95;26.33;;;;;;;;;;5055896;28;20531;-67
2022/04/04 01:10:08;;;;;;;44.70;24.13;;;;;;;;;;5037638;28;20079;-67
2022/04/04 01:12:35;;;;;;;39.85;22.77;;;;;;;;;;5055469;28;20530;-67
2022/04/04 01:15:02;;;;;;;42.58;23.88;;;;;;;;;;5055044;28;20102;-66
2022/04/04 01:17:29;;;;;;;46.63;24.08;;;;;;;;;;5037456;28;20033;-66
2022/04/04 01:19:58;;;;;;;50.65;25.63;;;;;;;;;;5055407;28;20111;-66
2022/04/04 01:22:24;;;;;;;54.88;26.45;;;;;;;;;;5055293;28;20052;-65
2022/04/04 01:24:51;;;;;;;47.45;26.77;;;;;;;;;;5055256;28;20033;-65
2022/04/04 01:27:17;;;;;;;50.03;24.70;;;;;;;;;;5037305;28;20039;-68
2022/04/04 01:29:44;;;;;;;49.70;24.52;;;;;;;;;;5055496;28;20029;-69
2022/04/04 01:32:11;;;;;;;49.58;24.70;;;;;;;;;;5055090;28;20025;-68
2022/04/04 01:34:37;;;;;;;50.90;23.65;;;;;;;;;;5055050;28;20025;-69
2022/04/04 01:37:04;;;;;;;43.97;25.10;;;;;;;;;;5054975;28;20456;-69
2022/04/04 01:39:30;;;;;;;44.30;24.08;;;;;;;;;;5055071;28;20378;-67
2022/04/04 01:41:56;;;;;;;43.45;23.80;;;;;;;;;;5054974;28;20048;-68
2022/04/04 01:44:23;;;;;;;39.15;22.63;;;;;;;;;;5054848;28;20440;-67
2022/04/04 01:46:49;;;;;;;46.95;25.00;;;;;;;;;;5036882;28;20120;-68
2022/04/04 01:49:15;;;;;;;45.08;24.88;;;;;;;;;;5036867;28;20029;-69
2022/04/04 01:51:42;;;;;;;36.78;22.38;;;;;;;;;;5054777;28;20482;-68
2022/04/04 01:54:09;;;;;;;35.97;21.95;;;;;;;;;;5054660;28;20131;-69
2022/04/04 01:56:35;;;;;;;39.22;22.27;;;;;;;;;;5036399;28;20033;-68
2022/04/04 01:59:01;;;;;;;39.00;22.50;;;;;;;;;;5054597;28;20033;-69
2022/04/04 02:01:28;;;;;;;41.20;24.10;;;;;;;;;;5054836;28;20025;-69
2022/04/04 02:03:58;;;;;;;44.25;24.88;;;;;;;;;;5054538;28;20095;-69
2022/04/04 02:06:25;;;;;;;44.13;24.07;;;;;;;;;;5054551;28;20028;-69
2022/04/04 02:08:51;;;;;;;46.40;24.33;;;;;;;;;;5054122;28;20037;-69
2022/04/04 02:11:19;;;;;;;40.58;23.35;;;;;;;;;;5054229;28;20024;-70
2022/04/04 02:13:46;;;;;;;36.58;21.02;;;;;;;;;;5054304;28;20385;-71
2022/04/04 02:16:12;;;;;;;34.25;20.83;;;;;;;;;;5035853;28;20060;-68
2022/04/04 02:18:38;;;;;;;31.75;18.65;;;;;;;;;;5054150;28;20033;-69
2022/04/04 02:21:05;;;;;;;41.65;21.20;;;;;;;;;;5036274;28;20029;-73
2022/04/04 02:23:32;;;;;;;30.48;18.95;;;;;;;;;;5054164;28;20040;-72
2022/04/04 02:25:58;;;;;;;28.02;19.25;;;;;;;;;;5054101;28;20025;-70
2022/04/04 02:28:25;;;;;;;30.10;18.88;;;;;;;;;;5054089;28;20036;-71
2022/04/04 02:30:51;;;;;;;32.65;18.45;;;;;;;;;;5054250;28;20020;-73
2022/04/04 02:33:22;;;;;;;40.60;18.85;;;;;;;;;;5036008;28;20036;-73
2022/04/04 02:35:52;;;;;;;31.42;19.48;;;;;;;;;;5053685;28;20394;-70
2022/04/04 02:38:21;;;;;;;30.00;17.65;;;;;;;;;;5053753;28;20036;-71
2022/04/04 02:40:48;;;;;;;54.00;23.42;;;;;;;;;;5035957;28;20025;-71
2022/04/04 02:43:14;;;;;;;84.97;35.97;;;;;;;;;;5053797;28;20021;-71
2022/04/04 02:45:41;;;;;;;85.65;36.08;;;;;;;;;;5035743;28;20031;-70
2022/04/04 02:48:07;;;;;;;68.65;33.08;;;;;;;;;;5053645;28;20588;-71
2022/04/04 02:50:37;;;;;;;48.05;26.73;;;;;;;;;;5035716;28;20029;-70
2022/04/04 02:53:03;;;;;;;38.97;21.52;;;;;;;;;;5053563;28;20771;-71
2022/04/04 02:58:15;;;;;;;48.17;24.08;;;;;;;;;;5053259;28;20103;-68
2022/04/04 03:00:42;;;;;;;68.57;33.50;;;;;;;;;;5053486;28;20025;-68
2022/04/04 03:03:08;;;;;;;46.35;24.25;;;;;;;;;;5035181;28;20036;-69
2022/04/04 03:05:34;;;;;;;48.45;21.98;;;;;;;;;;5035389;28;20032;-67
2022/04/04 03:08:00;;;;;;;39.80;20.63;;;;;;;;;;5053026;28;20044;-67
2022/04/04 03:10:27;;;;;;;36.45;21.00;;;;;;;;;;5053322;28;20484;-67
2022/04/04 03:12:53;;;;;;;33.63;19.45;;;;;;;;;;5053228;28;20029;-67
2022/04/04 03:15:23;;;;;;;34.75;20.33;;;;;;;;;;5052764;28;20053;-67
2022/04/04 03:17:53;;;;;;;37.25;19.75;;;;;;;;;;5053134;28;20151;-67
2022/04/04 03:20:20;;;;;;;36.67;19.98;;;;;;;;;;5035111;28;20456;-67
2022/04/04 03:22:47;;;;;;;32.35;16.85;;;;;;;;;;5055302;28;20038;-67
2022/04/04 03:25:14;;;;;;;32.13;18.65;;;;;;;;;;5062591;28;20100;-67
2022/04/04 03:27:42;;;;;;;36.78;18.80;;;;;;;;;;5053704;28;20462;-66
2022/04/04 03:30:10;;;;;;;35.88;19.98;;;;;;;;;;5035144;28;20381;-67
2022/04/04 03:32:36;;;;;;;42.88;20.23;;;;;;;;;;5035285;28;20381;-67
2022/04/04 03:35:04;;;;;;;41.63;21.75;;;;;;;;;;5052927;28;20091;-68
2022/04/04 03:37:31;;;;;;;39.45;21.58;;;;;;;;;;5052908;28;20040;-67
2022/04/04 03:39:57;;;;;;;34.08;21.75;;;;;;;;;;5053004;28;20050;-66
2022/04/04 03:42:24;;;;;;;38.95;20.15;;;;;;;;;;5040132;28;20021;-67
2022/04/04 03:44:50;;;;;;;38.85;22.20;;;;;;;;;;5052869;28;20401;-67
2022/04/04 03:47:16;;;;;;;38.78;21.42;;;;;;;;;;5034934;28;20025;-68
2022/04/04 03:49:43;;;;;;;39.25;21.08;;;;;;;;;;5054800;28;20048;-67
2022/04/04 03:52:10;;;;;;;39.10;21.27;;;;;;;;;;5060348;28;20377;-68
2022/04/04 03:54:36;;;;;;;54.75;22.63;;;;;;;;;;5072657;28;20034;-67
2022/04/04 03:57:03;;;;;;;48.75;22.30;;;;;;;;;;5072708;28;20025;-68
2022/04/04 03:59:29;;;;;;;43.47;24.03;;;;;;;;;;5070359;28;20032;-69
2022/04/04 04:01:55;;;;;;;55.50;24.65;;;;;;;;;;5062673;28;20145;-68
2022/04/04 04:04:21;;;;;;;62.30;25.40;;;;;;;;;;5042598;28;20025;-68
2022/04/04 04:06:47;;;;;;;52.00;26.02;;;;;;;;;;5043327;28;20450;-67
2022/04/04 04:09:13;;;;;;;49.43;26.10;;;;;;;;;;5062262;28;20029;-68
2022/04/04 04:11:40;;;;;;;63.38;26.95;;;;;;;;;;5057584;28;20052;-68
2022/04/04 04:14:06;;;;;;;53.88;25.40;;;;;;;;;;5043454;28;20051;-69
2022/04/04 04:16:32;;;;;;;47.47;23.65;;;;;;;;;;5060025;28;20393;-67
2022/04/04 04:18:59;;;;;;;42.72;22.85;;;;;;;;;;5062058;28;20024;-66
2022/04/04 04:21:25;;;;;;;49.75;23.95;;;;;;;;;;5043469;28;20035;-67
2022/04/04 04:23:51;;;;;;;57.33;23.13;;;;;;;;;;5060318;28;20029;-67
2022/04/04 04:26:18;;;;;;;56.88;22.42;;;;;;;;;;5057902;28;20018;-68
2022/04/04 04:28:46;;;;;;;48.08;21.65;;;;;;;;;;5060370;28;20025;-70
2022/04/04 04:31:12;;;;;;;44.42;22.42;;;;;;;;;;5062125;28;20029;-69
2022/04/04 04:33:39;;;;;;;64.03;23.03;;;;;;;;;;5044977;28;20027;-68
2022/04/04 04:36:05;;;;;;;61.67;24.33;;;;;;;;;;5064757;28;20023;-69
2022/04/04 04:38:31;;;;;;;57.92;24.60;;;;;;;;;;5047908;28;20094;-69
2022/04/04 04:40:58;;;;;;;68.25;25.15;;;;;;;;;;5061233;28;20029;-67
2022/04/04 04:43:24;;;;;;;53.53;25.40;;;;;;;;;;5044253;28;20025;-67
2022/04/04 04:45:50;;;;;;;70.30;28.48;;;;;;;;;;5038014;28;20028;-66
2022/04/04 04:48:17;;;;;;;69.93;29.47;;;;;;;;;;5055754;28;20029;-67
2022/04/04 04:50:43;;;;;;;62.53;29.38;;;;;;;;;;5038034;28;20033;-67
2022/04/04 04:53:09;;;;;;;82.47;34.42;;;;;;;;;;5055815;28;20075;-67
2022/04/04 04:55:36;;;;;;;79.25;33.50;;;;;;;;;;5055767;28;20036;-67
2022/04/04 04:58:02;;;;;;;92.63;37.25;;;;;;;;;;5037670;28;20033;-68
2022/04/04 05:00:29;;;;;;;83.55;33.50;;;;;;;;;;5055545;28;20029;-69
2022/04/04 05:05:42;;;;;;;80.35;34.15;;;;;;;;;;5055318;28;20083;-68
2022/04/04 05:08:08;;;;;;;90.78;36.13;;;;;;;;;;5055487;28;20035;-68
2022/04/04 05:10:35;;;;;;;83.60;36.92;;;;;;;;;;5055811;28;20040;-68
2022/04/04 05:13:01;;;;;;;91.30;37.00;;;;;;;;;;5055421;28;20025;-67
2022/04/04 05:15:27;;;;;;;89.70;38.53;;;;;;;;;;5033751;28;20045;-69
2022/04/04 05:17:53;;;;;;;108.37;44.53;;;;;;;;;;5035378;28;20044;-67
2022/04/04 05:20:20;;;;;;;82.00;36.80;;;;;;;;;;5035412;28;20040;-67
2022/04/04 05:22:46;;;;;;;63.58;32.67;;;;;;;;;;5035358;28;20149;-67
2022/04/04 05:25:13;;;;;;;46.53;26.42;;;;;;;;;;5035286;28;20033;-67
2022/04/04 05:27:40;;;;;;;57.35;27.00;;;;;;;;;;5035189;28;20076;-67
2022/04/04 05:30:07;;;;;;;55.08;27.75;;;;;;;;;;5035128;28;20104;-68
2022/04/04 05:32:34;;;;;;;60.00;30.77;;;;;;;;;;5033612;28;20032;-66
2022/04/04 05:35:01;;;;;;;58.40;31.00;;;;;;;;;;5035031;28;20088;-67
2022/04/04 05:37:27;;;;;;;65.50;32.65;;;;;;;;;;5034919;28;20090;-68
2022/04/04 05:39:54;;;;;;;70.15;35.58;;;;;;;;;;5046081;28;20381;-68
2022/04/04 05:42:22;;;;;;;83.28;38.78;;;;;;;;;;5053312;28;20028;-68
2022/04/04 05:44:48;;;;;;;78.32;40.08;;;;;;;;;;5052584;28;20029;-68
2022/04/04 05:47:19;;;;;;;76.35;37.92;;;;;;;;;;5054763;28;20025;-68
2022/04/04 05:49:45;;;;;;;64.78;32.25;;;;;;;;;;5054723;28;20116;-68
2022/04/04 05:52:12;;;;;;;75.18;36.28;;;;;;;;;;5053367;28;20494;-68
2022/04/04 05:54:53;;;;;;;76.45;37.78;;;;;;;;;;5053607;28;20386;-69
2022/04/04 05:57:23;;;;;;;93.70;44.40;;;;;;;;;;5053163;28;20155;-67
2022/04/04 05:59:50;;;;;;;80.32;41.92;;;;;;;;;;5054424;28;20025;-68
2022/04/04 06:02:16;;;;;;;83.28;42.08;;;;;;;;;;5054453;28;20422;-67
2022/04/04 06:04:42;;;;;;;82.10;40.10;;;;;;;;;;5053088;28;20179;-67
2022/04/04 06:07:09;;;;;;;66.82;35.50;;;;;;;;;;5053124;28;20116;-67
2022/04/04 06:09:35;;;;;;;74.45;36.08;;;;;;;;;;5054305;28;20028;-73
2022/04/04 06:12:01;;;;;;;70.85;37.38;;;;;;;;;;5054257;28;20021;-67
2022/04/04 06:14:27;;;;;;;78.18;37.05;;;;;;;;;;5058889;28;20040;-67
2022/04/04 06:16:53;;;;;;;66.35;35.50;;;;;;;;;;5074192;28;20028;-71
2022/04/04 06:19:20;;;;;;;72.70;38.40;;;;;;;;;;5072991;28;20047;-68
2022/04/04 06:21:46;;;;;;;75.75;37.03;;;;;;;;;;5072580;28;20028;-67
2022/04/04 06:24:12;;;;;;;67.50;35.72;;;;;;;;;;5073248;28;20035;-66
2022/04/04 06:26:39;;;;;;;57.90;32.05;;;;;;;;;;5073939;28;20039;-66
2022/04/04 06:29:09;;;;;;;48.45;27.10;;;;;;;;;;5055860;28;20032;-66
2022/04/04 06:31:36;;;;;;;38.33;23.35;;;;;;;;;;5074267;28;20380;-66
2022/04/04 06:34:04;;;;;;;48.60;24.95;;;;;;;;;;5073845;28;20027;-66
2022/04/04 06:36:30;;;;;;;48.60;25.85;;;;;;;;;;5073804;28;20034;-67
2022/04/04 06:38:57;;;;;;;49.78;26.52;;;;;;;;;;5056209;28;20429;-67
2022/04/04 06:41:23;;;;;;;50.65;23.77;;;;;;;;;;5035620;28;20033;-66
2022/04/04 06:43:50;;;;;;;36.22;20.88;;;;;;;;;;5053642;28;20017;-66
2022/04/04 06:46:16;;;;;;;37.28;21.73;;;;;;;;;;5053521;28;20043;-66
2022/04/04 06:48:44;;;;;;;35.85;20.17;;;;;;;;;;5053778;28;20041;-66
2022/04/04 06:51:11;;;;;;;37.17;21.60;;;;;;;;;;5053257;28;20430;-66
2022/04/04 06:53:37;;;;;;;38.90;20.95;;;;;;;;;;5035587;28;20454;-66
2022/04/04 06:56:04;;;;;;;38.45;22.08;;;;;;;;;;5053560;28;20063;-66
2022/04/04 06:58:30;;;;;;;33.22;19.83;;;;;;;;;;5053319;28;20037;-66
2022/04/04 07:00:57;;;;;;;38.88;20.73;;;;;;;;;;5053297;28;20091;-65
2022/04/04 07:03:23;;;;;;;36.17;23.88;;;;;;;;;;5035439;28;20171;-65
2022/04/04 07:05:50;;;;;;;38.70;24.13;;;;;;;;;;5053277;28;20028;-65
2022/04/04 07:08:16;;;;;;;39.42;23.65;;;;;;;;;;5052718;28;20111;-65
2022/04/04 07:10:42;;;;;;;35.90;19.63;;;;;;;;;;5052495;28;20136;-66
2022/04/04 07:13:08;;;;;;;30.77;20.10;;;;;;;;;;5053144;28;20033;-66
2022/04/04 07:15:35;;;;;;;42.08;23.77;;;;;;;;;;5052894;28;20103;-66
2022/04/04 07:18:01;;;;;;;35.28;20.75;;;;;;;;;;5034935;28;20094;-69
2022/04/04 07:20:28;;;;;;;40.85;21.10;;;;;;;;;;5034985;28;20025;-69
2022/04/04 07:22:54;;;;;;;37.90;20.58;;;;;;;;;;5035136;28;20030;-70
2022/04/04 07:25:22;;;;;;;36.85;19.67;;;;;;;;;;5052986;28;20017;-68
2022/04/04 07:27:48;;;;;;;34.13;20.05;;;;;;;;;;5051425;28;20060;-68
2022/04/04 07:30:17;;;;;;;29.83;19.15;;;;;;;;;;5052714;28;20485;-68
2022/04/04 07:32:44;;;;;;;28.23;18.63;;;;;;;;;;5051485;28;20056;-68
2022/04/04 07:35:11;;;;;;;33.20;18.23;;;;;;;;;;5051450;28;20489;-66
2022/04/04 07:37:37;;;;;;;30.90;17.67;;;;;;;;;;5052709;28;20059;-67
2022/04/04 07:40:05;;;;;;;32.40;19.45;;;;;;;;;;5051241;28;20025;-68
2022/04/04 07:42:31;;;;;;;28.75;17.60;;;;;;;;;;5052093;28;20098;-67
2022/04/04 07:44:57;;;;;;;28.02;17.38;;;;;;;;;;5052597;28;20025;-67
2022/04/04 07:47:24;;;;;;;30.95;17.25;;;;;;;;;;5052672;28;20029;-67
2022/04/04 07:49:50;;;;;;;24.55;15.68;;;;;;;;;;5052690;28;20537;-68
2022/04/04 07:52:16;;;;;;;21.67;14.48;;;;;;;;;;5052474;28;20131;-68
2022/04/04 07:54:43;;;;;;;21.48;12.15;;;;;;;;;;5028315;28;20087;-72
2022/04/04 07:57:09;;;;;;;19.40;11.00;;;;;;;;;;5031280;28;20030;-68
2022/04/04 07:59:36;;;;;;;18.55;11.18;;;;;;;;;;5032551;28;20056;-68
2022/04/04 08:02:03;;;;;;;18.73;12.18;;;;;;;;;;5052327;28;20100;-71
2022/04/04 08:04:29;;;;;;;19.23;11.55;;;;;;;;;;5052265;28;20017;-69
2022/04/04 08:06:55;;;;;;;13.77;8.73;;;;;;;;;;5052121;28;20017;-70
2022/04/04 08:09:21;;;;;;;16.63;10.95;;;;;;;;;;5056444;28;20112;-68
2022/04/04 08:11:47;;;;;;;85.00;38.85;;;;;;;;;;5056727;28;20017;-69
2022/04/04 08:14:14;;;;;;;17.55;10.32;;;;;;;;;;5046462;28;20485;-68
2022/04/04 08:16:40;;;;;;;17.73;10.90;;;;;;;;;;5037305;28;20083;-69
2022/04/04 08:19:06;;;;;;;16.60;11.45;;;;;;;;;;5035440;28;20033;-68
2022/04/04 08:21:32;;;;;;;18.95;10.75;;;;;;;;;;5037061;28;20025;-68
2022/04/04 08:23:59;;;;;;;25.08;13.07;;;;;;;;;;5035597;28;20025;-68
2022/04/04 08:26:25;;;;;;;18.55;11.40;;;;;;;;;;5035297;28;20159;-68
2022/04/04 08:28:51;;;;;;;15.38;11.05;;;;;;;;;;5035344;28;20025;-68
2022/04/04 08:31:17;;;;;;;18.67;9.98;;;;;;;;;;5056757;28;20405;-69
2022/04/04 08:33:43;;;;;;;20.98;10.15;;;;;;;;;;5057019;28;20036;-71
2022/04/04 08:36:10;;;;;;;14.35;10.25;;;;;;;;;;5056620;28;20021;-68
2022/04/04 08:38:38;;;;;;;13.75;9.65;;;;;;;;;;5055523;28;20132;-71
2022/04/04 08:41:05;;;;;;;13.20;9.68;;;;;;;;;;5055600;28;20021;-70
2022/04/04 08:43:36;;;;;;;18.65;11.18;;;;;;;;;;5055815;28;20067;-70
2022/04/04 08:46:04;;;;;;;16.95;11.40;;;;;;;;;;5055835;28;20025;-69
2022/04/04 08:48:31;;;;;;;19.88;11.50;;;;;;;;;;5037515;28;20504;-71
2022/04/04 08:50:57;;;;;;;20.25;11.43;;;;;;;;;;5055492;28;20111;-71
2022/04/04 08:53:23;;;;;;;18.88;10.95;;;;;;;;;;5055274;28;20031;-70
2022/04/04 08:55:50;;;;;;;18.65;11.48;;;;;;;;;;5055412;28;20116;-71
2022/04/04 08:58:16;;;;;;;26.50;12.45;;;;;;;;;;5055309;28;20401;-72
2022/04/04 09:00:42;;;;;;;20.60;11.65;;;;;;;;;;5055282;28;20032;-70
2022/04/04 09:03:09;;;;;;;21.35;12.68;;;;;;;;;;5055433;28;20111;-70
2022/04/04 09:05:49;;;;;;;18.13;11.70;;;;;;;;;;5055330;28;20474;-71
2022/04/04 09:08:15;;;;;;;23.20;11.60;;;;;;;;;;5037372;28;20040;-71
2022/04/04 09:10:43;;;;;;;17.27;10.60;;;;;;;;;;5037178;28;20480;-72
2022/04/04 09:13:12;;;;;;;21.95;10.80;;;;;;;;;;5054448;28;20378;-71
2022/04/04 09:15:54;;;;;;;18.95;11.35;;;;;;;;;;5055146;28;20120;-71
2022/04/04 09:18:39;;;;;;;13.82;10.60;;;;;;;;;;5054628;28;20041;-67
2022/04/04 09:21:07;;;;;;;20.08;10.95;;;;;;;;;;5055028;28;20374;-69
2022/04/04 09:23:34;;;;;;;18.65;12.45;;;;;;;;;;5054898;28;20025;-70
2022/04/04 09:26:00;;;;;;;36.97;19.63;;;;;;;;;;5037227;28;20100;-72
2022/04/04 09:28:27;;;;;;;17.40;9.02;;;;;;;;;;5037048;28;20443;-69
2022/04/04 09:31:10;;;;;;;12.25;8.20;;;;;;;;;;5055000;28;20033;-68
2022/04/04 09:33:36;;;;;;;12.70;9.07;;;;;;;;;;5054953;28;20031;-70
2022/04/04 09:36:04;;;;;;;9.10;7.30;;;;;;;;;;5055237;28;20025;-70
2022/04/04 09:38:33;;;;;;;14.20;8.82;;;;;;;;;;5054840;28;20029;-70
2022/04/04 09:41:05;;;;;;;11.68;7.20;;;;;;;;;;5054814;28;20106;-67
2022/04/04 09:43:31;;;;;;;;;;;;;;;;;;5037286;28;20052;-67
2022/04/04 09:46:10;;;;;;;9.85;7.82;;;;;;;;;;5054811;28;19948;-68
2022/04/04 09:48:36;;;;;;;10.98;8.68;;;;;;;;;;5036174;28;20029;-69
2022/04/04 09:51:03;;;;;;;11.10;7.93;;;;;;;;;;5055438;28;20021;-68
2022/04/04 09:53:30;;;;;;;10.82;7.78;;;;;;;;;;5053419;28;20027;-71
2022/04/04 09:55:57;;;;;;;11.45;8.82;;;;;;;;;;5053850;28;20096;-70
2022/04/04 09:58:24;;;;;;;12.88;9.55;;;;;;;;;;5036341;28;20061;-67
2022/04/04 10:00:50;;;;;;;17.25;8.30;;;14.60;66.30;;;;;;5054455;28;20488;-68
2022/04/04 10:03:18;;;;;;;11.88;7.97;;;14.60;66.50;;;;;;5035542;28;20028;-72
2022/04/04 10:05:56;;;;;;;10.38;7.85;;;14.70;65.30;;;;;;5054123;28;20028;-68
2022/04/04 10:08:26;;;;;;;11.98;8.80;;;14.90;91.60;;;;;;5054223;28;20037;-65
2022/04/04 10:10:54;;;;;;;14.05;8.63;;;14.80;83.70;;;;;;5054129;28;20025;-67
2022/04/04 10:13:21;;;;;;;16.98;8.80;;;15.00;64.70;;;;;;5054213;28;20025;-68
2022/04/04 10:15:48;;;;;;;10.15;8.02;;;;;;;;;;5035796;28;20048;-67
2022/04/04 10:18:14;;;;;;;12.80;8.02;;;15.40;60.00;;;;;;5036106;28;20378;-67
2022/04/04 10:20:41;;;;;;;11.80;8.93;;;15.50;56.40;;;;;;5036099;28;20028;-68
2022/04/04 10:23:15;;;;;;;13.23;8.57;;;15.30;59.30;;;;;;5053973;28;20032;-67
2022/04/04 10:25:41;;;;;;;9.93;8.38;;;15.40;61.40;;;;;;5053846;28;20481;-68
2022/04/04 10:28:07;;;;;;;11.75;7.68;;;15.70;60.90;;;;;;5053934;28;20060;-68
2022/04/04 10:30:41;;;;;;;11.00;8.57;;;15.80;57.40;;;;;;5053445;28;20053;-68
2022/04/04 10:33:22;;;;;;;11.55;8.18;;;16.00;56.30;;;;;;5053478;28;20393;-68
2022/04/04 10:36:10;;;;;;;9.20;8.18;;;17.00;59.00;;;;;;5053888;28;20048;-68
2022/04/04 10:38:37;;;;;;;11.00;8.82;;;;;;;;;;5053615;28;20037;-68
2022/04/04 10:41:08;;;;;;;13.77;9.05;;;17.30;55.10;;;;;;5053533;28;20483;-67
2022/04/04 10:43:39;;;;;;;11.45;8.30;;;18.80;55.80;;;;;;5035495;28;20033;-67
2022/04/04 10:46:10;;;;;;;13.47;8.90;;;19.90;55.40;;;;;;5053554;28;20465;-66
2022/04/04 10:48:41;;;;;;;13.13;9.20;;;;;;;;;;5053004;28;20511;-68
2022/04/04 10:51:12;;;;;;;14.65;9.48;;;20.20;52.50;;;;;;5035516;28;20025;-67
2022/04/04 10:53:40;;;;;;;11.57;8.05;;;;;;;;;;5053243;28;20029;-66
2022/04/04 10:56:07;;;;;;;8.85;7.13;;;;;;;;;;5035432;28;20083;-67
2022/04/04 10:58:33;;;;;;;10.23;7.60;;;20.40;52.30;;;;;;5053273;28;20051;-67
2022/04/04 11:01:09;;;;;;;10.55;7.50;;;21.50;68.30;;;;;;5053322;28;20025;-67
2022/04/04 11:03:38;;;;;;;9.18;7.32;;;19.50;45.90;;;;;;5053196;28;20025;-66
2022/04/04 11:09:15;;;;;;;11.65;7.45;;;18.50;50.50;;;;;;5053013;28;20090;-67
2022/04/04 11:12:09;;;;;;;8.82;6.88;;;18.30;48.90;;;;;;5035074;28;20033;-67
2022/04/04 11:14:38;;;;;;;11.07;7.50;;;18.20;51.10;;;;;;5052597;28;20049;-66
2022/04/04 11:17:07;;;;;;;12.43;7.43;;;19.60;46.20;;;;;;5053059;28;20033;-66
2022/04/04 11:19:48;;;;;;;7.63;6.68;;;21.10;48.50;;;;;;5052731;28;20573;-67
2022/04/04 11:22:18;;;;;;;8.05;6.07;;;25.10;47.50;;;;;;5052616;28;20159;-67
2022/04/04 11:24:49;;;;;;;8.50;5.50;;;;;;;;;;5053019;28;20075;-68
2022/04/04 11:27:15;;;;;;;8.60;6.65;;;25.50;39.40;;;;;;5052602;28;20445;-67
2022/04/04 11:29:41;;;;;;;9.98;6.75;;;26.40;39.50;;;;;;5052604;28;20108;-69
2022/04/04 11:32:08;;;;;;;7.40;5.20;;;26.40;41.10;;;;;;5052688;28;20366;-67
2022/04/04 11:34:39;;;;;;;9.43;5.45;;;24.10;37.90;;;;;;5052918;28;20036;-71
2022/04/04 11:37:05;;;;;;;10.25;5.90;;;22.30;41.60;;;;;;5051205;28;20031;-73
2022/04/04 11:39:32;;;;;;;8.13;5.50;;;21.20;43.40;;;;;;5052512;28;20049;-73
2022/04/04 11:41:59;;;;;;;11.75;6.00;;;21.60;44.30;;;;;;5031795;28;20554;-69
2022/04/04 11:44:26;;;;;;;7.20;5.20;;;23.80;44.70;;;;;;5052820;28;20436;-72
2022/04/04 11:47:18;;;;;;;6.30;5.25;;;26.50;41.00;;;;;;5052662;28;20033;-71
2022/04/04 11:49:46;;;;;;;9.55;4.55;;;26.60;36.50;;;;;;5048615;28;20041;-69
2022/04/04 11:52:18;;;;;;;5.88;5.18;;;27.30;36.60;;;;;;5034109;28;20025;-72
2022/04/04 11:54:51;;;;;;;6.53;4.97;;;;;;;;;;5052534;28;20318;-71
2022/04/04 11:57:18;;;;;;;10.05;5.55;;;28.00;38.30;;;;;;5034473;28;20377;-71
2022/04/04 11:59:46;;;;;;;7.43;5.07;;;;;;;;;;5052139;28;20090;-71
2022/04/04 12:02:13;;;;;;;7.22;4.85;;;;;;;;;;5050993;28;20421;-71
2022/04/04 12:04:40;;;;;;;5.22;4.60;;;;;;;;;;5052561;28;20021;-72
2022/04/04 12:07:07;;;;;;;5.78;4.43;;;;;;;;;;5014317;28;20029;-73
2022/04/04 12:09:37;;;;;;;8.23;5.38;;;29.20;36.20;;;;;;5032484;28;20044;-71
2022/04/04 12:12:08;;;;;;;8.10;5.45;;;29.00;33.30;;;;;;5030798;28;20401;-72
2022/04/04 12:14:39;;;;;;;6.18;5.10;;;25.80;35.30;;;;;;5013854;28;20045;-72
2022/04/04 12:17:11;;;;;;;7.07;5.50;;;23.10;37.30;;;;;;5014584;28;20497;-71
2022/04/04 12:19:48;;;;;;;5.88;4.50;;;25.60;35.30;;;;;;5014602;28;20069;-72
2022/04/04 12:25:00;;;;;;;7.30;4.93;;;23.40;37.50;;;;;;5032084;28;20049;-72
2022/04/04 12:27:26;;;;;;;6.57;5.15;;;21.20;38.60;;;;;;5032043;28;20368;-71
2022/04/04 12:30:01;;;;;;;8.25;5.85;;;19.90;42.00;;;;;;5032463;28;20562;-73
2022/04/04 12:32:33;;;;;;;9.52;5.30;;;18.70;45.40;;;;;;5032427;28;20033;-70
2022/04/04 12:35:00;;;;;;;;;;;19.20;46.20;;;;;;5032894;28;20036;-70
2022/04/04 12:37:33;;;;;;;6.93;5.00;;;18.20;44.40;;;;;;5014371;28;19956;-70
2022/04/04 12:40:21;;;;;;;14.63;6.05;;;17.60;48.90;;;;;;5032291;28;20025;-70
2022/04/04 12:42:49;;;;;;;8.38;5.13;;;17.30;48.40;;;;;;5032170;28;20032;-70
2022/04/04 12:45:17;;;;;;;8.57;5.35;;;21.50;44.70;;;;;;5032165;28;20588;-70
2022/04/04 12:48:10;;;;;;;6.28;5.68;;;24.60;40.90;;;;;;5032486;28;20030;-71
2022/04/04 12:50:42;;;;;;;7.53;5.32;;;26.10;42.50;;;;;;5032201;28;20112;-71
2022/04/04 12:53:10;;;;;;;9.27;5.35;;;25.20;41.50;;;;;;5032300;28;20068;-71
2022/04/04 12:55:37;;;;;;;6.43;5.07;;;27.80;37.10;;;;;;5035697;28;20053;-71
2022/04/04 12:58:17;;;;;;;8.70;5.40;;;28.40;37.50;;;;;;5035598;28;20087;-71
2022/04/04 13:00:43;;;;;;;6.78;4.93;;;26.60;36.60;;;;;;5054702;28;20056;-70
2022/04/04 13:03:19;;;;;;;6.05;4.80;;;25.90;38.50;;;;;;5037070;28;20017;-71
2022/04/04 13:05:49;;;;;;;7.28;5.18;;;23.10;39.20;;;;;;5055480;28;20033;-72
2022/04/04 13:08:20;;;;;;;11.15;6.20;;;21.50;42.60;;;;;;5037481;28;20028;-70
2022/04/04 13:11:04;;;;;;;7.40;4.97;;;19.80;44.50;;;;;;5055271;28;20470;-73
2022/04/04 13:13:31;;;;;;;9.35;5.40;;;20.80;43.00;;;;;;5055426;28;20031;-70
2022/04/04 13:15:57;;;;;;;8.35;5.10;;;20.10;42.00;;;;;;5054562;28;20129;-72
2022/04/04 13:18:24;;;;;;;9.63;5.88;;;19.40;42.60;;;;;;5055201;28;20461;-72
2022/04/04 13:20:53;;;;;;;6.82;5.47;;;19.80;44.10;;;;;;5055184;28;20488;-70
2022/04/04 13:23:21;;;;;;;9.85;6.15;;;22.40;40.80;;;;;;5054864;28;20132;-71
2022/04/04 13:25:50;;;;;;;6.07;5.43;;;24.60;39.70;;;;;;5054861;28;20083;-71
2022/04/04 13:28:16;;;;;;;7.20;5.78;;;26.20;37.90;;;;;;5037425;28;20458;-70
2022/04/04 13:30:43;;;;;;;9.05;6.13;;;26.30;50.80;;;;;;5038012;28;20102;-71
2022/04/04 13:33:09;;;;;;;7.50;5.50;;;;;;;;;;5036878;28;20035;-70
2022/04/04 13:35:36;;;;;;;7.25;5.07;;;29.70;35.80;;;;;;5055048;28;20071;-72
2022/04/04 13:38:03;;;;;;;8.13;5.82;;;;;;;;;;5054863;28;20037;-72
2022/04/04 13:40:30;;;;;;;7.47;5.10;;;32.00;33.50;;;;;;5054858;28;20457;-71
2022/04/04 13:42:56;;;;;;;7.38;4.90;;;31.90;34.20;;;;;;5054731;28;20029;-73
2022/04/04 13:45:22;;;;;;;7.97;4.75;;;31.80;33.90;;;;;;5054942;28;20481;-70
2022/04/04 13:47:48;;;;;;;7.10;4.90;;;32.50;39.00;;;;;;5054949;28;20465;-71
2022/04/04 13:50:14;;;;;;;7.55;5.50;;;32.40;34.40;;;;;;5054802;28;20024;-71
2022/04/04 13:52:40;;;;;;;6.78;5.47;;;32.80;32.50;;;;;;5036804;28;20457;-71
2022/04/04 13:55:09;;;;;;;6.05;4.88;;;32.20;32.40;;;;;;5054731;28;20025;-71
2022/04/04 13:57:35;;;;;;;7.47;4.80;;;32.40;32.60;;;;;;5054640;28;20060;-70
2022/04/04 14:00:01;;;;;;;6.78;4.28;;;;;;;;;;5054600;28;20025;-71
2022/04/04 14:02:27;;;;;;;8.50;5.03;;;32.90;33.60;;;;;;5054412;28;20025;-71
2022/04/04 14:04:53;;;;;;;5.40;4.90;;;34.00;34.20;;;;;;5035727;28;20084;-70
2022/04/04 14:07:19;;;;;;;6.88;4.93;;;33.60;32.70;;;;;;5036400;28;20043;-71
2022/04/04 14:09:45;;;;;;;5.40;4.60;;;32.30;33.00;;;;;;5054017;28;20052;-72